Time;durP1;ratioP1;P1;durP2;ratioP2;P2;SDS_P1;SDS_P2;PMS_P1;PMS_P2;Temp;Humidity;BMP_temperature;BMP_pressure;BME280_temperature;BME280_humidity;BME280_pressure;Samples;Min_cycle;Max_cycle;Signal;HPM_P1;HPM_P2
2021/07/05 00:00:15;;;;;;;18.88;12.48;;;18.50;99.90;;;;;;5047546;28;20676;-47
2021/07/05 00:02:41;;;;;;;14.45;11.73;;;18.40;99.90;;;;;;5064922;28;20457;-45
2021/07/05 00:05:09;;;;;;;22.23;13.30;;;18.40;99.90;;;;;;5060336;28;20017;-45
2021/07/05 00:07:35;;;;;;;17.10;13.00;;;18.40;99.90;;;;;;5063976;28;20112;-46
2021/07/05 00:10:00;;;;;;;16.73;11.93;;;18.40;99.90;;;;;;5058283;28;20116;-46
2021/07/05 00:12:26;;;;;;;15.82;13.10;;;18.40;99.90;;;;;;5065896;28;20168;-46
2021/07/05 00:14:52;;;;;;;15.82;11.88;;;18.30;99.90;;;;;;5057954;28;20453;-46
2021/07/05 00:17:17;;;;;;;22.33;13.48;;;18.30;99.90;;;;;;5061319;28;20102;-47
2021/07/05 00:19:43;;;;;;;17.55;12.27;;;18.30;99.90;;;;;;5061572;28;20465;-48
2021/07/05 00:22:08;;;;;;;22.13;12.80;;;18.30;99.90;;;;;;5061415;28;20033;-46
2021/07/05 00:24:34;;;;;;;16.80;13.35;;;18.30;99.90;;;;;;5061657;28;20024;-47
2021/07/05 00:27:00;;;;;;;17.02;12.25;;;18.30;99.90;;;;;;5059766;28;20032;-46
2021/07/05 00:29:25;;;;;;;16.05;12.07;;;18.30;99.90;;;;;;5058902;28;20028;-45
2021/07/05 00:31:51;;;;;;;17.92;11.60;;;18.30;99.90;;;;;;5062265;28;20074;-45
2021/07/05 00:34:17;;;;;;;15.70;11.73;;;18.30;99.90;;;;;;5061183;28;20505;-47
2021/07/05 00:36:42;;;;;;;14.82;11.85;;;18.30;99.90;;;;;;5061640;28;20093;-45
2021/07/05 00:39:08;;;;;;;17.27;10.93;;;18.20;99.90;;;;;;5058788;28;20067;-46
2021/07/05 00:41:34;;;;;;;13.15;10.38;;;18.20;99.90;;;;;;5060176;28;20039;-45
2021/07/05 00:43:59;;;;;;;15.68;10.48;;;18.20;99.90;;;;;;5059016;28;20111;-45
2021/07/05 00:46:26;;;;;;;14.63;10.38;;;18.20;99.90;;;;;;5061526;28;20059;-46
2021/07/05 00:48:52;;;;;;;20.98;11.90;;;18.20;99.90;;;;;;5060743;28;20031;-46
2021/07/05 00:51:18;;;;;;;11.30;9.60;;;18.10;99.90;;;;;;5060288;28;20024;-45
2021/07/05 00:53:45;;;;;;;14.73;11.52;;;18.10;99.90;;;;;;5061338;28;20512;-46
2021/07/05 00:56:11;;;;;;;11.55;9.38;;;18.10;99.90;;;;;;5060853;28;20256;-46
2021/07/05 00:58:37;;;;;;;11.88;9.52;;;18.10;99.90;;;;;;5055432;28;20419;-46
2021/07/05 01:01:03;;;;;;;11.80;9.77;;;18.10;99.90;;;;;;5053409;28;20028;-47
2021/07/05 01:03:28;;;;;;;10.18;8.10;;;18.10;99.90;;;;;;5065171;28;20021;-45
2021/07/05 01:05:55;;;;;;;16.00;9.43;;;18.10;99.90;;;;;;5060612;28;20298;-46
2021/07/05 01:08:21;;;;;;;13.38;8.48;;;18.10;99.90;;;;;;5061019;28;20063;-48
2021/07/05 01:10:47;;;;;;;12.88;9.60;;;18.00;99.90;;;;;;5060249;28;20060;-46
2021/07/05 01:13:13;;;;;;;14.32;9.27;;;18.00;99.90;;;;;;5060417;28;20025;-46
2021/07/05 01:15:38;;;;;;;11.98;9.45;;;18.00;99.90;;;;;;5059384;28;20038;-48
2021/07/05 01:18:06;;;;;;;12.20;8.52;;;17.90;99.90;;;;;;5058557;28;20107;-46
2021/07/05 01:20:34;;;;;;;12.63;9.98;;;18.00;99.90;;;;;;5061141;28;20021;-46
2021/07/05 01:23:00;;;;;;;13.15;8.95;;;18.00;99.90;;;;;;5059999;28;20035;-46
2021/07/05 01:25:29;;;;;;;9.93;8.65;;;18.00;99.90;;;;;;5055928;28;20499;-46
2021/07/05 01:27:56;;;;;;;11.35;9.20;;;17.90;99.90;;;;;;5063403;28;20025;-46
2021/07/05 01:30:23;;;;;;;9.95;8.63;;;18.00;99.90;;;;;;5053255;28;20032;-46
2021/07/05 01:32:51;;;;;;;13.70;8.50;;;17.90;99.90;;;;;;5063188;28;20028;-46
2021/07/05 01:35:17;;;;;;;11.77;8.90;;;17.90;99.90;;;;;;5057428;28;20501;-47
2021/07/05 01:37:43;;;;;;;12.52;8.68;;;17.90;99.90;;;;;;5063044;28;20025;-48
2021/07/05 01:40:17;;;;;;;12.57;8.27;;;17.80;99.90;;;;;;5057938;28;20029;-46
2021/07/05 01:42:43;;;;;;;11.35;7.78;;;17.80;99.90;;;;;;5056616;28;20108;-48
2021/07/05 01:45:09;;;;;;;10.68;8.60;;;17.80;99.90;;;;;;5062919;28;20056;-46
2021/07/05 01:47:35;;;;;;;10.93;8.00;;;17.70;99.90;;;;;;5055347;28;20025;-45
2021/07/05 01:50:00;;;;;;;10.85;7.78;;;17.70;99.90;;;;;;5060818;28;20031;-45
2021/07/05 01:52:26;;;;;;;13.18;8.65;;;17.60;99.90;;;;;;5056482;28;20426;-45
2021/07/05 01:54:51;;;;;;;9.98;7.80;;;17.60;99.90;;;;;;5064056;28;20047;-48
2021/07/05 01:57:26;;;;;;;11.82;8.30;;;17.50;99.90;;;;;;5056926;28;20016;-48
2021/07/05 01:59:54;;;;;;;9.32;7.25;;;17.50;99.90;;;;;;5037764;28;20625;-46
2021/07/05 02:02:19;;;;;;;11.65;7.65;;;17.50;99.90;;;;;;5065882;28;20082;-48
2021/07/05 02:04:47;;;;;;;8.35;6.82;;;17.60;99.90;;;;;;5056918;28;20021;-46
2021/07/05 02:07:12;;;;;;;10.55;6.82;;;17.60;99.90;;;;;;5062082;28;20051;-47
2021/07/05 02:09:38;;;;;;;9.25;7.40;;;17.60;99.90;;;;;;5055497;28;20498;-45
2021/07/05 02:12:04;;;;;;;7.70;6.90;;;17.70;99.90;;;;;;5064238;28;20082;-47
2021/07/05 02:14:29;;;;;;;10.35;6.25;;;17.60;99.90;;;;;;5054684;28;20024;-45
2021/07/05 02:16:55;;;;;;;7.85;6.60;;;17.60;99.90;;;;;;5055216;28;20082;-45
2021/07/05 02:19:21;;;;;;;9.95;7.35;;;17.60;99.90;;;;;;5057552;28;20424;-44
2021/07/05 02:21:47;;;;;;;12.07;7.78;;;17.60;99.90;;;;;;5059149;28;20032;-45
2021/07/05 02:24:12;;;;;;;9.80;6.60;;;17.50;99.90;;;;;;5058345;28;20017;-45
2021/07/05 02:26:38;;;;;;;12.88;7.60;;;17.60;99.90;;;;;;5060357;28;20359;-45
2021/07/05 02:29:03;;;;;;;15.95;7.93;;;17.50;99.90;;;;;;5056193;28;20064;-45
2021/07/05 02:31:29;;;;;;;13.02;8.18;;;17.40;99.90;;;;;;5060417;28;20096;-44
2021/07/05 02:33:54;;;;;;;9.85;7.50;;;17.40;99.90;;;;;;5058437;28;20025;-48
2021/07/05 02:36:20;;;;;;;9.13;7.25;;;17.40;99.90;;;;;;5059288;28;20070;-45
2021/07/05 02:38:47;;;;;;;12.38;7.75;;;17.50;99.90;;;;;;5060844;28;20383;-47
2021/07/05 02:41:13;;;;;;;10.27;7.15;;;17.50;99.90;;;;;;5056448;28;20386;-46
2021/07/05 02:43:39;;;;;;;14.43;7.60;;;17.40;99.90;;;;;;5059622;28;20036;-46
2021/07/05 02:46:04;;;;;;;9.98;7.47;;;17.50;99.90;;;;;;5057164;28;20025;-45
2021/07/05 02:48:32;;;;;;;13.00;7.80;;;17.40;99.90;;;;;;5058272;28;20166;-45
2021/07/05 02:51:00;;;;;;;12.00;7.45;;;17.40;99.90;;;;;;5057569;28;20091;-45
2021/07/05 02:53:26;;;;;;;12.10;7.47;;;17.40;99.90;;;;;;5059447;28;20060;-48
2021/07/05 02:55:52;;;;;;;10.63;6.50;;;17.40;99.90;;;;;;5059581;28;20052;-47
2021/07/05 02:58:18;;;;;;;11.60;6.93;;;17.40;99.90;;;;;;5058894;28;20016;-48
2021/07/05 03:00:48;;;;;;;10.80;7.30;;;17.40;99.90;;;;;;5051128;28;20028;-46
2021/07/05 03:03:14;;;;;;;10.70;8.17;;;17.40;99.90;;;;;;5066056;28;20021;-46
2021/07/05 03:05:40;;;;;;;12.50;7.20;;;17.40;99.90;;;;;;5063331;28;20024;-47
2021/07/05 03:08:06;;;;;;;13.07;6.45;;;17.40;99.90;;;;;;5062206;28;20031;-46
2021/07/05 03:10:35;;;;;;;9.23;6.72;;;17.40;99.90;;;;;;5062614;28;20278;-45
2021/07/05 03:13:02;;;;;;;9.13;7.10;;;17.30;99.90;;;;;;5062840;28;20352;-46
2021/07/05 03:15:28;;;;;;;9.75;6.47;;;17.30;99.90;;;;;;5061785;28;20074;-45
2021/07/05 03:17:54;;;;;;;17.40;6.97;;;17.30;99.90;;;;;;5063115;28;20024;-47
2021/07/05 03:20:23;;;;;;;9.95;6.45;;;17.30;99.90;;;;;;5060387;28;20016;-47
2021/07/05 03:22:50;;;;;;;11.98;6.88;;;17.30;99.90;;;;;;5062862;28;20037;-46
2021/07/05 03:25:18;;;;;;;10.32;6.63;;;17.30;99.90;;;;;;5059985;28;20052;-47
2021/07/05 03:27:44;;;;;;;8.27;6.15;;;17.30;99.90;;;;;;5064006;28;20105;-47
2021/07/05 03:30:12;;;;;;;10.60;7.90;;;17.40;99.90;;;;;;5060910;28;20107;-45
2021/07/05 03:32:38;;;;;;;14.02;7.78;;;17.30;99.90;;;;;;5064137;28;20056;-45
2021/07/05 03:35:05;;;;;;;7.95;6.75;;;17.30;99.90;;;;;;5061489;28;20032;-45
2021/07/05 03:37:31;;;;;;;10.85;7.82;;;17.30;99.90;;;;;;5063973;28;20463;-45
2021/07/05 03:39:56;;;;;;;17.40;8.40;;;17.30;99.90;;;;;;5061868;28;20078;-45
2021/07/05 03:42:22;;;;;;;13.98;9.25;;;17.30;99.90;;;;;;5058940;28;20037;-47
2021/07/05 03:44:48;;;;;;;13.40;8.15;;;17.30;99.90;;;;;;5064094;28;20042;-45
2021/07/05 03:47:13;;;;;;;15.50;8.60;;;17.20;99.90;;;;;;5059944;28;20028;-47
2021/07/05 03:49:38;;;;;;;16.05;8.68;;;17.20;99.90;;;;;;5063622;28;20205;-47
2021/07/05 03:52:04;;;;;;;13.10;8.48;;;17.30;99.90;;;;;;5061090;28;20035;-47
2021/07/05 03:54:30;;;;;;;14.77;8.80;;;17.30;99.90;;;;;;5061789;28;20040;-47
2021/07/05 03:56:56;;;;;;;13.23;8.35;;;17.30;99.90;;;;;;5061081;28;20458;-45
2021/07/05 03:59:21;;;;;;;10.57;8.13;;;17.30;99.90;;;;;;5046520;28;20112;-45
2021/07/05 04:01:47;;;;;;;18.00;9.57;;;17.30;99.90;;;;;;5062725;28;20103;-45
2021/07/05 04:04:13;;;;;;;14.25;8.52;;;17.30;99.90;;;;;;5062148;28;20107;-45
2021/07/05 04:06:38;;;;;;;14.63;9.02;;;17.30;99.90;;;;;;5063129;28;20583;-45
2021/07/05 04:09:05;;;;;;;10.68;7.43;;;17.30;99.90;;;;;;5060760;28;20021;-46
2021/07/05 04:11:31;;;;;;;11.52;7.88;;;17.30;99.90;;;;;;5047388;28;20408;-45
2021/07/05 04:13:57;;;;;;;18.13;8.02;;;17.30;99.90;;;;;;5058003;28;20372;-46
2021/07/05 04:16:24;;;;;;;12.43;7.85;;;17.30;99.90;;;;;;5055881;28;20031;-47
2021/07/05 04:18:50;;;;;;;10.27;7.13;;;17.30;99.90;;;;;;5058154;28;20017;-45
2021/07/05 04:21:15;;;;;;;14.23;8.10;;;17.30;99.90;;;;;;5065610;28;20027;-45
2021/07/05 04:23:41;;;;;;;13.20;7.47;;;17.30;99.90;;;;;;5058641;28;20025;-45
2021/07/05 04:26:07;;;;;;;11.38;8.20;;;17.40;99.90;;;;;;5059654;28;20036;-46
2021/07/05 04:28:32;;;;;;;13.15;7.95;;;17.40;99.90;;;;;;5042637;28;20021;-47
2021/07/05 04:30:58;;;;;;;9.38;6.95;;;17.40;99.90;;;;;;5057393;28;20108;-46
2021/07/05 04:33:24;;;;;;;13.75;7.95;;;17.50;99.90;;;;;;5064692;28;20398;-46
2021/07/05 04:35:50;;;;;;;11.73;7.78;;;17.50;99.90;;;;;;5057924;28;20025;-46
2021/07/05 04:38:15;;;;;;;13.88;8.00;;;17.50;99.90;;;;;;5066029;28;20359;-45
2021/07/05 04:40:42;;;;;;;12.98;8.27;;;17.40;99.90;;;;;;5057100;28;20349;-47
2021/07/05 04:43:09;;;;;;;9.95;7.32;;;17.40;99.90;;;;;;5059153;28;20024;-46
2021/07/05 04:45:36;;;;;;;10.85;7.22;;;17.40;99.90;;;;;;5063116;28;20032;-46
2021/07/05 04:48:05;;;;;;;12.20;6.82;;;17.40;99.90;;;;;;5053719;28;20237;-45
2021/07/05 04:50:31;;;;;;;10.57;6.65;;;17.50;99.90;;;;;;5054944;28;20587;-47
2021/07/05 04:52:58;;;;;;;10.07;7.20;;;17.50;99.90;;;;;;5053045;28;20033;-45
2021/07/05 04:55:25;;;;;;;8.98;6.45;;;17.50;99.90;;;;;;5031422;28;20605;-46
2021/07/05 04:57:52;;;;;;;9.70;6.57;;;17.50;99.90;;;;;;5033755;28;20025;-45
2021/07/05 05:00:21;;;;;;;8.43;6.45;;;17.50;99.90;;;;;;5042912;28;20016;-47
2021/07/05 05:02:46;;;;;;;12.05;7.22;;;17.50;99.90;;;;;;5047146;28;20025;-45
2021/07/05 05:05:12;;;;;;;9.90;6.18;;;17.50;99.90;;;;;;5039355;28;20040;-46
2021/07/05 05:07:39;;;;;;;10.57;5.85;;;17.50;99.90;;;;;;5051782;28;20061;-47
2021/07/05 05:10:08;;;;;;;10.18;7.05;;;17.60;99.90;;;;;;5046478;28;20029;-45
2021/07/05 05:12:34;;;;;;;11.75;6.45;;;17.60;99.90;;;;;;5050838;28;20493;-48
2021/07/05 05:15:00;;;;;;;8.15;5.38;;;17.60;99.90;;;;;;5033896;28;20031;-46
2021/07/05 05:17:26;;;;;;;16.13;7.30;;;17.60;99.90;;;;;;5058360;28;20032;-46
2021/07/05 05:19:51;;;;;;;9.23;5.80;;;17.60;99.90;;;;;;5045682;28;20519;-45
2021/07/05 05:22:17;;;;;;;10.63;6.10;;;17.60;99.90;;;;;;5045335;28;20021;-46
2021/07/05 05:24:43;;;;;;;8.82;6.05;;;17.60;99.90;;;;;;5035897;28;20167;-45
2021/07/05 05:27:09;;;;;;;9.27;6.15;;;17.60;99.90;;;;;;5047087;28;20105;-47
2021/07/05 05:29:35;;;;;;;9.30;5.90;;;17.50;99.90;;;;;;5055460;28;20033;-46
2021/07/05 05:32:01;;;;;;;10.85;5.65;;;17.60;99.90;;;;;;5051497;28;20570;-45
2021/07/05 05:34:26;;;;;;;9.38;5.75;;;17.60;99.90;;;;;;5056364;28;20032;-46
2021/07/05 05:36:52;;;;;;;9.05;5.75;;;17.60;99.90;;;;;;5054850;28;20036;-45
2021/07/05 05:39:17;;;;;;;8.93;5.53;;;17.60;99.90;;;;;;5043259;28;20029;-46
2021/07/05 05:41:43;;;;;;;11.32;5.60;;;17.60;99.90;;;;;;5052446;28;20119;-46
2021/07/05 05:44:08;;;;;;;12.40;6.28;;;17.70;99.90;;;;;;5041559;28;20017;-46
2021/07/05 05:46:34;;;;;;;8.18;4.78;;;17.70;99.90;;;;;;5045851;28;20246;-46
2021/07/05 05:49:01;;;;;;;6.53;5.13;;;17.60;99.90;;;;;;5036310;28;20067;-46
2021/07/05 05:51:46;;;;;;;10.93;5.30;;;17.70;99.90;;;;;;5052499;28;20025;-46
2021/07/05 05:54:12;;;;;;;8.02;5.05;;;17.70;99.90;;;;;;5048849;28;20401;-46
2021/07/05 05:56:40;;;;;;;10.48;5.60;;;17.70;99.90;;;;;;5054316;28;20362;-45
2021/07/05 05:59:07;;;;;;;5.70;4.57;;;17.70;99.90;;;;;;5039538;28;20020;-45
2021/07/05 06:01:35;;;;;;;6.18;4.30;;;17.60;99.90;;;;;;5044893;28;20021;-45
2021/07/05 06:04:00;;;;;;;9.13;4.63;;;17.60;99.90;;;;;;5039325;28;20025;-46
2021/07/05 06:06:26;;;;;;;5.78;4.07;;;17.60;99.90;;;;;;5046368;28;20486;-45
2021/07/05 06:08:52;;;;;;;6.22;4.22;;;17.60;99.90;;;;;;5048930;28;20063;-45
2021/07/05 06:11:19;;;;;;;8.73;4.20;;;17.60;99.90;;;;;;5048214;28;20060;-46
2021/07/05 06:13:45;;;;;;;10.93;4.97;;;17.70;99.90;;;;;;5053844;28;20033;-45
2021/07/05 06:16:11;;;;;;;6.65;3.75;;;17.70;99.90;;;;;;5049106;28;20025;-45
2021/07/05 06:18:36;;;;;;;7.32;3.95;;;17.70;99.90;;;;;;5053808;28;20637;-46
2021/07/05 06:21:02;;;;;;;6.88;3.88;;;17.70;99.90;;;;;;5048146;28;20037;-46
2021/07/05 06:23:28;;;;;;;7.03;4.82;;;17.80;99.90;;;;;;5055401;28;20044;-45
2021/07/05 06:26:00;;;;;;;7.80;4.13;;;17.90;99.90;;;;;;5053631;28;20402;-45
2021/07/05 06:28:28;;;;;;;7.97;3.72;;;17.90;99.90;;;;;;5049492;28;20057;-45
2021/07/05 06:30:53;;;;;;;8.15;3.38;;;18.00;99.90;;;;;;5048084;28;20033;-46
2021/07/05 06:33:20;;;;;;;4.35;2.83;;;18.00;99.90;;;;;;5062780;28;20460;-46
2021/07/05 06:35:47;;;;;;;5.38;2.88;;;18.10;99.90;;;;;;5054360;28;20100;-46
2021/07/05 06:38:13;;;;;;;5.15;3.30;;;18.00;99.90;;;;;;5063966;28;20516;-45
2021/07/05 06:40:40;;;;;;;3.05;2.33;;;18.10;99.90;;;;;;5054717;28;20021;-46
2021/07/05 06:43:05;;;;;;;3.53;2.72;;;18.20;99.90;;;;;;5055186;28;20478;-48
2021/07/05 06:45:31;;;;;;;6.85;2.85;;;18.20;99.90;;;;;;5056318;28;20029;-45
2021/07/05 06:47:57;;;;;;;4.55;3.00;;;18.30;99.90;;;;;;5055476;28;20028;-46
2021/07/05 06:50:23;;;;;;;2.63;2.42;;;18.40;99.90;;;;;;5059490;28;20040;-46
2021/07/05 06:52:49;;;;;;;3.58;2.33;;;18.50;99.90;;;;;;5055466;28;20052;-45
2021/07/05 06:55:15;;;;;;;3.70;2.45;;;18.60;99.90;;;;;;5059598;28;20502;-45
2021/07/05 06:57:41;;;;;;;5.43;3.28;;;18.70;99.90;;;;;;5054767;28;20021;-45
2021/07/05 07:00:10;;;;;;;4.75;2.80;;;18.80;99.90;;;;;;5047300;28;20052;-45
2021/07/05 07:02:37;;;;;;;4.90;3.05;;;18.90;99.90;;;;;;5063521;28;20029;-45
2021/07/05 07:05:08;;;;;;;2.80;2.47;;;19.00;99.90;;;;;;5051620;28;20051;-45
2021/07/05 07:07:34;;;;;;;5.28;2.25;;;19.10;99.90;;;;;;5060635;28;20021;-46
2021/07/05 07:10:00;;;;;;;4.22;2.53;;;19.20;99.90;;;;;;5051949;28;20124;-46
2021/07/05 07:12:26;;;;;;;4.03;2.92;;;19.30;99.90;;;;;;5062714;28;20041;-45
2021/07/05 07:14:51;;;;;;;4.60;2.45;;;19.40;99.90;;;;;;5050720;28;20029;-45
2021/07/05 07:17:32;;;;;;;2.90;2.38;;;19.50;99.90;;;;;;5057180;28;20023;-47
2021/07/05 07:19:57;;;;;;;2.70;1.95;;;19.60;99.90;;;;;;5054628;28;20395;-47
2021/07/05 07:22:23;;;;;;;2.53;2.10;;;19.60;99.90;;;;;;5058254;28;20027;-48
2021/07/05 07:24:48;;;;;;;2.33;2.10;;;19.70;99.90;;;;;;5049299;28;20044;-45
2021/07/05 07:27:14;;;;;;;5.75;2.85;;;19.60;99.90;;;;;;5054967;28;20116;-45
2021/07/05 07:29:40;;;;;;;2.95;2.30;;;19.70;99.90;;;;;;5046539;28;20442;-46
2021/07/05 07:32:07;;;;;;;3.35;2.25;;;19.70;99.90;;;;;;5032946;28;20522;-46
2021/07/05 07:34:32;;;;;;;4.82;2.47;;;19.80;99.90;;;;;;5049465;28;20685;-45
2021/07/05 07:37:02;;;;;;;4.00;2.50;;;19.80;99.90;;;;;;5034301;28;20100;-46
2021/07/05 07:39:34;;;;;;;3.60;2.15;;;19.90;99.90;;;;;;5058588;28;20028;-48
2021/07/05 07:42:00;;;;;;;4.80;2.22;;;20.00;99.90;;;;;;5038373;28;20525;-48
2021/07/05 07:44:25;;;;;;;4.00;2.13;;;20.10;99.90;;;;;;5047465;28;20108;-47
2021/07/05 07:46:51;;;;;;;4.28;2.35;;;20.20;99.90;;;;;;5035386;28;20379;-45
2021/07/05 07:49:16;;;;;;;3.35;2.35;;;20.30;99.90;;;;;;5043457;28;20551;-47
2021/07/05 07:51:42;;;;;;;5.97;2.22;;;20.40;99.90;;;;;;5042549;28;20029;-47
2021/07/05 07:54:07;;;;;;;4.38;2.88;;;20.50;99.90;;;;;;5050877;28;20108;-47
2021/07/05 07:56:34;;;;;;;2.50;2.13;;;20.70;99.90;;;;;;5050946;28;20024;-48
2021/07/05 07:59:02;;;;;;;4.28;2.45;;;20.90;99.90;;;;;;5044396;28;20027;-49
2021/07/05 08:01:28;;;;;;;3.53;2.25;;;21.10;99.90;;;;;;5046024;28;20025;-47
2021/07/05 08:03:54;;;;;;;2.40;2.20;;;21.20;99.90;;;;;;5038517;28;20056;-49
2021/07/05 08:06:20;;;;;;;4.70;2.05;;;21.30;99.90;;;;;;5053834;28;20044;-46
2021/07/05 08:08:48;;;;;;;2.92;2.17;;;21.50;99.90;;;;;;5042410;28;20033;-48
2021/07/05 08:11:14;;;;;;;2.70;2.30;;;21.70;99.90;;;;;;5052456;28;20033;-46
2021/07/05 08:13:40;;;;;;;3.97;2.63;;;22.10;99.90;;;;;;5049040;28;20535;-46
2021/07/05 08:16:05;;;;;;;3.10;2.10;;;22.30;99.90;;;;;;5049290;28;20549;-49
2021/07/05 08:18:31;;;;;;;4.72;1.90;;;22.80;99.90;;;;;;5061242;28;20112;-48
2021/07/05 08:20:56;;;;;;;3.90;1.50;;;23.50;99.90;;;;;;5057389;28;20429;-46
2021/07/05 08:23:22;;;;;;;4.30;1.70;;;24.50;98.80;;;;;;5058757;28;20029;-47
2021/07/05 08:25:48;;;;;;;2.88;1.83;;;25.50;96.90;;;;;;5056487;28;20033;-46
2021/07/05 08:28:15;;;;;;;2.92;1.63;;;26.30;93.60;;;;;;5064244;28;20040;-49
2021/07/05 08:30:40;;;;;;;1.45;1.35;;;26.90;90.90;;;;;;5043341;28;20036;-50
2021/07/05 08:33:06;;;;;;;1.88;1.45;;;27.10;89.90;;;;;;5064776;28;20021;-47
2021/07/05 08:35:31;;;;;;;1.30;1.20;;;27.50;85.00;;;;;;5054670;28;20045;-46
2021/07/05 08:37:57;;;;;;;2.58;2.00;;;27.40;80.10;;;;;;5065914;28;20020;-46
2021/07/05 08:40:23;;;;;;;1.65;1.48;;;27.00;82.10;;;;;;5035446;28;20030;-48
2021/07/05 08:42:49;;;;;;;3.90;1.77;;;26.00;84.30;;;;;;5034523;28;20034;-48
2021/07/05 08:45:15;;;;;;;2.83;1.65;;;25.90;86.50;;;;;;5033686;28;20022;-47
2021/07/05 08:47:43;;;;;;;1.88;1.48;;;26.10;83.60;;;;;;5032737;28;20133;-46
2021/07/05 08:50:11;;;;;;;5.75;1.77;;;26.60;82.20;;;;;;5053057;28;20021;-47
2021/07/05 08:52:47;;;;;;;3.40;1.45;;;26.30;80.50;;;;;;5052837;28;20501;-47
2021/07/05 08:55:16;;;;;;;1.50;1.40;;;26.50;80.10;;;;;;5051314;28;20033;-46
2021/07/05 08:57:41;;;;;;;3.45;1.50;;;27.10;79.30;;;;;;5049195;28;20025;-46
2021/07/05 09:00:15;;;;;;;1.83;1.23;;;28.10;75.80;;;;;;5040586;28;20022;-47
2021/07/05 09:02:40;;;;;;;2.83;1.27;;;28.00;74.10;;;;;;5052376;28;20494;-47
2021/07/05 09:05:07;;;;;;;2.83;1.40;;;28.10;72.80;;;;;;5041281;28;20032;-47
2021/07/05 09:07:52;;;;;;;1.80;1.70;;;28.00;71.50;;;;;;5048871;28;20041;-46
2021/07/05 09:10:18;;;;;;;1.85;1.40;;;27.40;74.90;;;;;;5054334;28;20119;-46
2021/07/05 09:12:43;;;;;;;3.22;1.83;;;27.00;77.70;;;;;;5047798;28;20029;-46
2021/07/05 09:15:14;;;;;;;1.52;1.33;;;26.40;75.60;;;;;;5048924;28;20172;-47
2021/07/05 09:17:42;;;;;;;4.82;1.80;;;25.90;76.80;;;;;;5064815;28;20028;-46
2021/07/05 09:20:13;;;;;;;2.58;1.27;;;25.80;78.00;;;;;;5057317;28;20027;-47
2021/07/05 09:23:10;;;;;;;2.67;1.40;;;25.60;77.70;;;;;;5058135;28;20036;-48
2021/07/05 09:25:38;;;;;;;2.13;1.42;;;25.40;78.70;;;;;;5045431;28;20025;-48
2021/07/05 09:28:04;;;;;;;4.10;1.85;;;25.60;80.30;;;;;;5062815;28;20025;-46
2021/07/05 09:30:45;;;;;;;4.45;1.70;;;25.40;79.40;;;;;;5041114;28;20489;-45
2021/07/05 09:33:24;;;;;;;1.67;1.50;;;25.10;81.80;;;;;;5065502;28;20135;-46
2021/07/05 09:35:55;;;;;;;1.95;1.48;;;24.90;81.70;;;;;;5056666;28;20029;-48
2021/07/05 09:38:29;;;;;;;6.93;1.58;;;24.70;79.20;;;;;;5058159;28;20017;-45
2021/07/05 09:40:55;;;;;;;3.08;1.50;;;24.80;82.00;;;;;;5053186;28;20029;-49
2021/07/05 09:43:26;;;;;;;1.65;1.20;;;25.30;77.60;;;;;;5059600;28;20021;-48
2021/07/05 09:45:51;;;;;;;1.73;1.30;;;25.30;77.50;;;;;;5057735;28;20035;-47
2021/07/05 09:48:24;;;;;;;2.28;1.10;;;25.40;80.10;;;;;;5053120;28;20394;-46
2021/07/05 09:50:59;;;;;;;1.30;1.10;;;25.60;78.00;;;;;;5046963;28;20158;-46
2021/07/05 09:53:30;;;;;;;2.08;1.45;;;25.70;76.30;;;;;;5039655;28;20052;-45
2021/07/05 09:56:16;;;;;;;2.88;1.65;;;25.00;78.20;;;;;;5055326;28;20166;-44
2021/07/05 09:58:42;;;;;;;1.60;1.20;;;24.70;78.40;;;;;;5043430;28;20032;-44
2021/07/05 10:01:08;;;;;;;3.28;1.42;;;25.00;78.40;;;;;;5042825;28;20021;-47
2021/07/05 10:03:36;;;;;;;2.05;1.30;;;25.00;79.20;;;;;;5039291;28;20518;-44
2021/07/05 10:06:21;;;;;;;1.63;1.20;;;25.10;80.10;;;;;;5054902;28;20186;-47
2021/07/05 10:08:47;;;;;;;2.28;1.50;;;25.10;80.50;;;;;;5058079;28;20258;-44
2021/07/05 10:11:14;;;;;;;2.78;1.45;;;25.10;80.80;;;;;;5046448;28;20509;-45
2021/07/05 10:13:40;;;;;;;1.30;1.20;;;24.90;80.20;;;;;;5050592;28;20025;-44
2021/07/05 10:16:10;;;;;;;2.65;1.55;;;24.70;80.10;;;;;;5051215;28;20029;-43
2021/07/05 10:18:35;;;;;;;1.52;1.42;;;24.10;82.70;;;;;;5055504;28;20013;-44
2021/07/05 10:21:03;;;;;;;1.27;1.17;;;23.80;85.60;;;;;;5061230;28;20116;-44
2021/07/05 10:23:29;;;;;;;4.78;1.88;;;23.50;87.50;;;;;;5055325;28;20356;-44
2021/07/05 10:25:54;;;;;;;2.47;1.55;;;23.60;89.10;;;;;;5049127;28;20111;-43
2021/07/05 10:28:20;;;;;;;4.18;1.70;;;23.60;90.00;;;;;;5061990;28;20107;-44
2021/07/05 10:30:51;;;;;;;4.32;1.70;;;23.70;90.30;;;;;;5043660;28;20025;-43
2021/07/05 10:33:17;;;;;;;4.53;2.05;;;23.50;90.30;;;;;;5065337;28;20025;-44
2021/07/05 10:35:46;;;;;;;8.15;2.40;;;23.40;91.20;;;;;;5054698;28;20075;-43
2021/07/05 10:38:13;;;;;;;5.40;2.30;;;23.30;91.50;;;;;;5035795;28;20500;-43
2021/07/05 10:40:48;;;;;;;5.07;2.20;;;23.40;92.10;;;;;;5044118;28;20036;-44
2021/07/05 10:43:53;;;;;;;3.72;2.42;;;23.50;92.20;;;;;;5036784;28;20505;-44
2021/07/05 10:46:44;;;;;;;3.15;2.35;;;23.60;91.40;;;;;;5048049;28;20036;-44
2021/07/05 10:49:31;;;;;;;3.30;2.38;;;23.50;91.80;;;;;;5032998;28;20044;-44
2021/07/05 10:52:02;;;;;;;5.80;2.40;;;23.40;92.30;;;;;;5043183;28;20033;-45
2021/07/05 10:54:56;;;;;;;5.00;2.20;;;23.80;91.60;;;;;;5040718;28;20243;-44
2021/07/05 10:57:34;;;;;;;7.20;1.95;;;23.80;91.60;;;;;;5038478;28;20394;-44
2021/07/05 11:00:18;;;;;;;6.78;2.13;;;24.50;91.60;;;;;;5031834;28;20026;-45
2021/07/05 11:02:51;;;;;;;4.88;1.95;;;25.80;89.70;;;;;;5043939;28;20028;-44
2021/07/05 11:05:31;;;;;;;4.60;2.08;;;26.30;86.00;;;;;;5049708;28;20040;-44
2021/07/05 11:08:24;;;;;;;6.35;2.03;;;26.10;86.40;;;;;;5042132;28;20048;-44
2021/07/05 11:11:10;;;;;;;6.25;2.03;;;26.80;84.40;;;;;;5045545;28;20056;-44
2021/07/05 11:13:36;;;;;;;2.95;1.60;;;26.90;84.00;;;;;;5039027;28;20029;-47
2021/07/05 11:16:03;;;;;;;3.97;2.25;;;27.30;81.50;;;;;;5050863;28;20059;-44
2021/07/05 11:18:45;;;;;;;3.22;1.77;;;26.10;81.90;;;;;;5055227;28;20020;-45
2021/07/05 11:21:42;;;;;;;2.90;1.73;;;25.80;85.90;;;;;;5051175;28;20451;-43
2021/07/05 11:24:12;;;;;;;2.22;1.83;;;25.40;84.90;;;;;;5056902;28;20581;-43
2021/07/05 11:26:40;;;;;;;2.05;1.85;;;24.90;87.40;;;;;;5061188;28;20106;-44
2021/07/05 11:29:24;;;;;;;3.42;2.05;;;24.40;88.70;;;;;;5055940;28;20442;-44
2021/07/05 11:31:58;;;;;;;5.28;2.30;;;23.80;90.30;;;;;;5054659;28;20078;-44
2021/07/05 11:34:38;;;;;;;4.05;2.10;;;23.60;92.30;;;;;;5045977;28;20222;-44
2021/07/05 11:37:12;;;;;;;5.38;3.25;;;22.80;97.10;;;;;;5042802;28;20022;-45
2021/07/05 11:39:52;;;;;;;8.63;2.95;;;21.50;99.90;;;;;;5052778;28;20282;-44
2021/07/05 11:42:30;;;;;;;10.75;3.22;;;20.60;99.90;;;;;;5038469;28;20490;-48
2021/07/05 11:44:56;;;;;;;6.10;3.20;;;19.80;99.90;;;;;;5048237;28;20104;-46
2021/07/05 11:47:37;;;;;;;3.97;3.50;;;19.50;99.90;;;;;;5035459;28;20589;-45
2021/07/05 11:50:20;;;;;;;10.27;3.20;;;19.40;99.90;;;;;;5053509;28;20457;-45
2021/07/05 11:52:47;;;;;;;6.43;3.97;;;19.20;99.90;;;;;;5039454;28;20025;-46
2021/07/05 11:55:14;;;;;;;5.35;3.58;;;19.30;99.90;;;;;;5061184;28;20513;-45
2021/07/05 11:57:58;;;;;;;4.95;3.75;;;19.30;99.90;;;;;;5042081;28;20029;-44
2021/07/05 12:00:26;;;;;;;4.82;3.72;;;19.60;99.90;;;;;;5038614;28;20480;-45
2021/07/05 12:03:06;;;;;;;4.60;4.05;;;20.00;99.90;;;;;;5049011;28;20029;-44
2021/07/05 12:05:33;;;;;;;6.28;4.20;;;20.30;99.90;;;;;;5043073;28;20032;-45
2021/07/05 12:08:10;;;;;;;3.83;3.38;;;20.40;99.90;;;;;;5055542;28;20033;-44
2021/07/05 12:10:37;;;;;;;5.13;4.30;;;20.60;99.90;;;;;;5051140;28;20035;-45
2021/07/05 12:13:29;;;;;;;5.40;3.63;;;20.60;99.90;;;;;;5058337;28;20033;-44
2021/07/05 12:16:00;;;;;;;7.00;4.70;;;20.70;99.90;;;;;;5043610;28;20037;-44
2021/07/05 12:18:26;;;;;;;4.13;3.60;;;20.90;99.90;;;;;;5053869;28;20075;-45
2021/07/05 12:21:06;;;;;;;3.67;3.15;;;21.00;99.90;;;;;;5063570;28;20025;-45
2021/07/05 12:23:40;;;;;;;4.38;3.50;;;20.80;99.90;;;;;;5044998;28;20029;-44
2021/07/05 12:26:14;;;;;;;5.70;3.30;;;20.80;99.90;;;;;;5032793;28;20030;-44
2021/07/05 12:29:02;;;;;;;3.92;3.63;;;20.70;99.90;;;;;;5032163;28;20387;-43
2021/07/05 12:31:27;;;;;;;5.88;4.40;;;20.60;99.90;;;;;;5033248;28;20025;-47
2021/07/05 12:33:53;;;;;;;7.18;3.47;;;20.70;99.90;;;;;;5030255;28;20028;-48
2021/07/05 12:36:19;;;;;;;4.25;3.80;;;20.50;99.90;;;;;;5038342;28;20024;-47
2021/07/05 12:39:07;;;;;;;7.10;3.47;;;20.50;99.90;;;;;;5032312;28;20025;-49
2021/07/05 12:41:36;;;;;;;4.43;2.97;;;20.50;99.90;;;;;;5040083;28;20025;-47
2021/07/05 12:44:15;;;;;;;3.20;2.70;;;20.30;99.90;;;;;;5050806;28;20033;-48
2021/07/05 12:46:42;;;;;;;3.00;2.65;;;20.20;99.90;;;;;;5055084;28;20636;-47
2021/07/05 12:49:08;;;;;;;2.67;1.92;;;20.30;99.90;;;;;;5044424;28;20124;-49